Time;durP1;ratioP1;P1;durP2;ratioP2;P2;SDS_P1;SDS_P2;PMS_P1;PMS_P2;Temp;Humidity;BMP_temperature;BMP_pressure;BME280_temperature;BME280_humidity;BME280_pressure;Samples;Min_cycle;Max_cycle;Signal;HPM_P1;HPM_P2
2021/12/27 00:00:19;;;;;;;4.57;2.35;;;;;;;21.13;35.33;100065.94;7316198;19;130576;-62
2021/12/27 00:02:54;;;;;;;3.67;2.22;;;;;;;21.12;35.70;100064.28;7317754;19;131559;-61
2021/12/27 00:05:21;;;;;;;5.93;2.55;;;;;;;21.12;35.77;100061.50;7318004;19;128843;-62
2021/12/27 00:07:51;;;;;;;2.65;2.00;;;;;;;21.11;35.49;100056.22;7317100;19;129323;-62
2021/12/27 00:10:19;;;;;;;3.38;2.22;;;;;;;21.10;35.42;100063.72;7309678;19;131261;-61
2021/12/27 00:12:47;;;;;;;3.15;2.20;;;;;;;21.08;35.55;100057.59;7316445;19;130503;-61
2021/12/27 00:15:14;;;;;;;2.75;1.88;;;;;;;21.06;35.51;100054.28;7318756;19;129924;-61
2021/12/27 00:17:44;;;;;;;4.97;2.30;;;;;;;21.05;35.41;100047.88;7313144;19;130148;-62
2021/12/27 00:20:14;;;;;;;6.18;2.00;;;;;;;21.03;35.60;100050.13;7318335;19;130786;-62
2021/12/27 00:22:42;;;;;;;3.55;2.20;;;;;;;21.02;35.60;100048.44;7314494;19;130447;-62
2021/12/27 00:25:09;;;;;;;4.50;2.65;;;;;;;21.01;35.86;100043.19;7317989;19;129833;-62
2021/12/27 00:27:35;;;;;;;3.95;2.10;;;;;;;21.01;35.71;100044.00;7314388;19;128899;-62
2021/12/27 00:30:04;;;;;;;6.13;2.10;;;;;;;20.99;35.66;100029.53;7315687;19;131269;-60
2021/12/27 00:32:33;;;;;;;3.88;2.38;;;;;;;20.99;35.47;100031.50;7312672;19;130820;-61
2021/12/27 00:34:59;;;;;;;3.25;2.00;;;;;;;20.98;35.61;100035.41;7316692;19;129666;-62
2021/12/27 00:37:26;;;;;;;4.40;2.42;;;;;;;20.96;35.73;100032.91;7314453;19;131263;-61
2021/12/27 00:39:52;;;;;;;4.43;2.33;;;;;;;20.95;35.71;100035.97;7317386;19;130626;-62
2021/12/27 00:42:19;;;;;;;3.67;2.25;;;;;;;20.95;35.78;100025.69;7314864;19;131531;-62
2021/12/27 00:44:46;;;;;;;6.10;2.72;;;;;;;20.93;35.71;100022.34;7315260;19;129640;-60
2021/12/27 00:47:13;;;;;;;5.25;2.40;;;;;;;20.92;36.00;100025.44;7310981;19;128968;-61
2021/12/27 00:49:40;;;;;;;3.22;2.20;;;;;;;20.90;35.71;100015.44;7314449;19;130983;-62
2021/12/27 00:52:07;;;;;;;3.15;1.90;;;;;;;20.90;35.59;100015.44;7317424;19;131005;-61
2021/12/27 00:54:34;;;;;;;2.67;2.00;;;;;;;20.88;35.58;100014.03;7311469;19;130432;-62
2021/12/27 00:57:01;;;;;;;3.08;2.00;;;;;;;20.86;36.00;100011.53;7317181;19;129510;-62
2021/12/27 00:59:27;;;;;;;2.08;1.88;;;;;;;20.84;35.82;100019.31;7313130;19;130835;-62
2021/12/27 01:01:56;;;;;;;4.13;2.38;;;;;;;20.80;35.46;100009.88;7317786;19;130558;-62
2021/12/27 01:04:23;;;;;;;5.55;2.47;;;;;;;20.78;35.89;100005.72;7311897;19;130553;-62
2021/12/27 01:06:50;;;;;;;2.70;2.17;;;;;;;20.74;35.74;100003.47;7316050;19;129936;-62
2021/12/27 01:09:31;;;;;;;3.85;2.10;;;;;;;20.72;35.93;99996.53;7313531;19;130800;-62
2021/12/27 01:14:40;;;;;;;4.95;2.13;;;;;;;20.67;36.11;99999.34;7312857;19;128918;-62
2021/12/27 01:17:07;;;;;;;3.47;1.90;;;;;;;20.65;35.72;100004.38;7315221;19;129528;-62
2021/12/27 01:19:34;;;;;;;2.70;2.08;;;;;;;20.64;35.84;99997.97;7312633;19;135540;-62
2021/12/27 01:22:01;;;;;;;3.47;2.28;;;;;;;20.60;35.92;100003.25;7313988;19;131393;-62
2021/12/27 01:24:27;;;;;;;4.40;2.40;;;;;;;20.58;35.74;99999.91;7316424;19;129072;-62
2021/12/27 01:26:54;;;;;;;4.57;2.05;;;;;;;20.56;35.93;99995.75;7314841;19;129523;-62
2021/12/27 01:29:21;;;;;;;3.03;2.35;;;;;;;20.53;36.04;99991.63;7315237;19;132039;-62
2021/12/27 01:31:47;;;;;;;2.50;2.10;;;;;;;20.52;35.82;100000.22;7312456;19;131444;-62
2021/12/27 01:34:14;;;;;;;3.70;1.98;;;;;;;20.50;36.25;99994.94;7314654;19;128794;-62
2021/12/27 01:36:42;;;;;;;5.57;2.40;;;;;;;20.48;36.07;100004.69;7311975;19;131076;-62
2021/12/27 01:39:08;;;;;;;3.75;1.98;;;;;;;20.47;35.73;99995.50;7315982;19;131528;-62
2021/12/27 01:41:35;;;;;;;2.35;1.83;;;;;;;20.45;36.01;99994.94;7312664;19;131964;-62
2021/12/27 01:44:02;;;;;;;3.92;2.42;;;;;;;20.43;35.83;99999.97;7315038;19;129538;-63
2021/12/27 01:46:30;;;;;;;2.67;2.00;;;;;;;20.41;35.87;99988.31;7314183;19;128920;-62
2021/12/27 01:48:58;;;;;;;4.05;2.28;;;;;;;20.40;36.25;99998.56;7314013;19;130616;-62
2021/12/27 01:51:28;;;;;;;2.30;1.88;;;;;;;20.39;36.27;99998.88;7313448;19;130950;-62
2021/12/27 01:53:56;;;;;;;2.53;1.77;;;;;;;20.36;36.02;99988.31;7313245;19;129602;-62
2021/12/27 01:56:23;;;;;;;2.38;2.15;;;;;;;20.35;36.38;99992.19;7313958;19;128864;-62
2021/12/27 01:58:52;;;;;;;2.78;1.77;;;;;;;20.33;36.06;99986.94;7311349;19;130535;-62
2021/12/27 02:01:19;;;;;;;3.03;1.63;;;;;;;20.32;36.04;99995.53;7315039;19;130520;-62
2021/12/27 02:03:46;;;;;;;2.72;1.80;;;;;;;20.30;36.03;100006.94;7312014;19;129061;-62
2021/12/27 02:06:14;;;;;;;2.88;1.77;;;;;;;20.29;36.25;99994.16;7314347;19;128892;-62
2021/12/27 02:08:43;;;;;;;2.45;1.95;;;;;;;20.27;36.08;99999.16;7309878;19;131139;-61
2021/12/27 02:11:13;;;;;;;2.22;1.65;;;;;;;20.25;36.03;100002.22;7311446;19;131705;-62
2021/12/27 02:13:43;;;;;;;2.53;1.95;;;;;;;20.23;35.90;99987.78;7312238;19;129840;-62
2021/12/27 02:16:13;;;;;;;2.67;1.80;;;;;;;20.22;35.93;99986.09;7314066;19;128966;-62
2021/12/27 02:18:40;;;;;;;2.83;2.20;;;;;;;20.20;36.32;99980.00;7310755;19;130600;-62
2021/12/27 02:21:07;;;;;;;3.42;2.53;;;;;;;20.20;36.11;99980.00;7313404;19;130488;-62
2021/12/27 02:23:36;;;;;;;3.10;1.85;;;;;;;20.18;36.11;99971.13;7313787;19;130110;-62
2021/12/27 02:26:03;;;;;;;3.45;1.83;;;;;;;20.16;35.92;99976.13;7311945;19;129194;-62
2021/12/27 02:28:30;;;;;;;2.97;1.70;;;;;;;20.13;35.95;99968.34;7314172;19;130613;-61
2021/12/27 02:30:57;;;;;;;1.98;1.70;;;;;;;20.12;36.10;99973.06;7310906;19;130552;-61
2021/12/27 02:33:24;;;;;;;3.05;2.10;;;;;;;20.10;35.90;99971.69;7313564;19;129866;-62
2021/12/27 02:35:53;;;;;;;2.60;2.05;;;;;;;20.09;36.20;99970.03;7311412;19;128868;-61
2021/12/27 02:38:23;;;;;;;2.53;1.75;;;;;;;20.08;35.97;99965.56;7312064;19;130750;-62
2021/12/27 02:40:51;;;;;;;3.30;2.00;;;;;;;20.06;35.99;99962.28;7310905;19;130805;-61
2021/12/27 02:43:23;;;;;;;2.30;1.60;;;;;;;20.05;35.92;99968.94;7311104;19;129812;-62
2021/12/27 02:45:58;;;;;;;3.28;1.80;;;;;;;20.04;36.16;99967.25;7313838;19;128990;-62
2021/12/27 02:48:32;;;;;;;2.63;1.80;;;;;;;20.02;36.23;99964.75;7311195;19;131247;-61
2021/12/27 02:50:59;;;;;;;3.55;1.92;;;;;;;20.01;36.06;99967.81;7310859;19;131553;-62
2021/12/27 02:53:28;;;;;;;2.45;1.88;;;;;;;19.99;36.35;99966.16;7309414;19;128963;-62
2021/12/27 02:55:56;;;;;;;3.75;1.92;;;;;;;20.00;36.42;99966.97;7314754;19;130777;-62
2021/12/27 02:58:24;;;;;;;2.42;1.65;;;;;;;19.98;36.24;99958.91;7310687;19;130672;-62
2021/12/27 03:01:05;;;;;;;2.45;1.70;;;;;;;19.98;36.14;99952.53;7311509;19;131203;-62
2021/12/27 03:03:33;;;;;;;2.25;1.95;;;;;;;19.96;36.19;99947.25;7309854;19;128921;-61
2021/12/27 03:06:00;;;;;;;2.80;1.90;;;;;;;19.94;36.38;99935.56;7312102;19;129440;-62
2021/12/27 03:08:27;;;;;;;2.47;1.95;;;;;;;19.93;36.05;99933.09;7312350;19;131211;-61
2021/12/27 03:10:57;;;;;;;2.92;2.17;;;;;;;19.93;35.97;99938.66;7307354;19;131381;-62
2021/12/27 03:13:51;;;;;;;2.65;2.20;;;;;;;19.92;36.13;99937.81;7312603;19;130718;-61
2021/12/27 03:16:20;;;;;;;3.13;1.88;;;;;;;19.90;36.19;99928.09;7308455;19;128962;-62
2021/12/27 03:18:50;;;;;;;1.77;1.50;;;;;;;19.90;36.00;99936.41;7311288;19;130577;-61
2021/12/27 03:21:17;;;;;;;2.47;1.77;;;;;;;19.89;36.20;99937.53;7308369;19;130546;-62
2021/12/27 03:23:46;;;;;;;4.53;2.20;;;;;;;19.86;35.96;99933.38;7310031;19;128989;-61
2021/12/27 03:26:12;;;;;;;2.33;1.88;;;;;;;19.85;35.96;99931.69;7311486;19;130612;-62
2021/12/27 03:28:40;;;;;;;1.92;1.63;;;;;;;19.85;35.96;99926.16;7310470;19;130393;-62
2021/12/27 03:31:09;;;;;;;2.00;1.80;;;;;;;19.84;36.22;99919.78;7310564;19;130738;-62
2021/12/27 03:33:37;;;;;;;2.63;1.60;;;;;;;19.84;36.39;99919.78;7308782;19;128930;-61
2021/12/27 03:36:06;;;;;;;2.65;1.90;;;;;;;19.82;35.91;99916.44;7311081;19;129384;-62
2021/12/27 03:38:45;;;;;;;2.83;1.90;;;;;;;19.82;36.10;99910.91;7309991;19;130451;-62
2021/12/27 03:41:15;;;;;;;3.05;2.05;;;;;;;19.80;36.25;99915.91;7308272;19;131133;-62
2021/12/27 03:43:42;;;;;;;2.70;1.67;;;;;;;19.80;36.22;99918.66;7312987;19;128827;-62
2021/12/27 03:46:09;;;;;;;2.35;1.73;;;;;;;19.78;36.22;99914.53;7308044;19;129349;-62
2021/12/27 03:48:36;;;;;;;2.53;1.83;;;;;;;19.79;36.26;99918.97;7310229;19;130607;-62
2021/12/27 03:51:03;;;;;;;2.13;1.70;;;;;;;19.79;36.02;99905.91;7309624;19;130408;-62
2021/12/27 03:53:30;;;;;;;2.13;1.60;;;;;;;19.77;36.28;99910.91;7310710;19;128784;-62
2021/12/27 03:55:57;;;;;;;2.30;1.92;;;;;;;19.76;36.21;99905.63;7305746;19;129490;-62
2021/12/27 03:58:28;;;;;;;2.25;1.58;;;;;;;19.76;36.09;99908.41;7309997;19;134737;-62
2021/12/27 04:03:54;;;;;;;3.10;1.92;;;;;;;19.74;36.35;99896.75;7305845;19;129071;-61
2021/12/27 04:06:22;;;;;;;1.88;1.67;;;;;;;19.72;35.93;99899.81;7310533;19;129392;-61
2021/12/27 04:08:49;;;;;;;2.22;1.70;;;;;;;19.73;36.31;99906.19;7305486;19;130684;-62
2021/12/27 04:11:16;;;;;;;3.38;1.83;;;;;;;19.68;36.10;99894.00;7308687;19;131470;-62
2021/12/27 04:13:43;;;;;;;2.05;1.60;;;;;;;19.68;35.89;99894.00;7308777;19;129432;-62
2021/12/27 04:16:10;;;;;;;2.85;1.65;;;;;;;19.66;35.95;99901.75;7307534;19;132264;-62
2021/12/27 04:18:37;;;;;;;2.45;1.65;;;;;;;19.68;36.26;99898.69;7305451;19;131406;-61
2021/12/27 04:21:04;;;;;;;2.25;1.70;;;;;;;19.66;36.01;99901.75;7311229;19;131331;-62
2021/12/27 04:23:31;;;;;;;2.95;1.98;;;;;;;19.65;36.19;99891.78;7314837;19;128792;-62
2021/12/27 04:25:58;;;;;;;2.53;1.83;;;;;;;19.65;36.17;99889.00;7315144;19;129686;-62
2021/12/27 04:28:24;;;;;;;2.28;1.70;;;;;;;19.64;36.12;99892.03;7316123;19;130595;-62
2021/12/27 04:30:52;;;;;;;1.98;1.80;;;;;;;19.64;36.33;99898.44;7314047;19;131161;-61
2021/12/27 04:33:18;;;;;;;2.13;1.63;;;;;;;19.63;36.17;99891.22;7318496;19;129936;-62
2021/12/27 04:35:45;;;;;;;2.00;1.63;;;;;;;19.63;36.12;99898.72;7312981;19;130090;-62
2021/12/27 04:38:12;;;;;;;2.08;1.67;;;;;;;19.62;35.98;99891.50;7316674;19;131423;-62
2021/12/27 04:40:42;;;;;;;1.98;1.65;;;;;;;19.62;35.99;99902.59;7313244;19;131390;-62
2021/12/27 04:43:12;;;;;;;2.20;1.83;;;;;;;19.59;36.28;99895.66;7316808;19;129303;-62
2021/12/27 04:45:40;;;;;;;2.65;1.70;;;;;;;19.60;36.12;99899.28;7313079;19;130402;-62
2021/12/27 04:48:07;;;;;;;2.28;1.73;;;;;;;19.59;36.32;99898.41;7315399;19;131802;-62
2021/12/27 04:50:34;;;;;;;2.58;1.77;;;;;;;19.58;35.93;99891.19;7313345;19;130748;-62
2021/12/27 04:53:02;;;;;;;2.60;1.90;;;;;;;19.59;36.37;99895.66;7315503;19;129697;-62
2021/12/27 04:55:30;;;;;;;1.92;1.70;;;;;;;19.58;36.12;99887.63;7315421;19;130388;-62
2021/12/27 04:57:57;;;;;;;1.88;1.45;;;;;;;19.58;35.96;99882.06;7313598;19;130654;-62
2021/12/27 05:00:23;;;;;;;2.90;1.48;;;;;;;19.57;35.87;99881.22;7314927;19;130860;-62
2021/12/27 05:02:50;;;;;;;3.25;1.75;;;;;;;19.56;36.34;99874.03;7313689;19;129055;-62
2021/12/27 05:05:17;;;;;;;1.52;1.42;;;;;;;19.56;36.14;99881.50;7315250;19;128857;-62
2021/12/27 05:07:47;;;;;;;5.22;1.77;;;;;;;19.55;35.88;99871.50;7312628;19;130842;-62
2021/12/27 05:10:16;;;;;;;1.70;1.60;;;;;;;19.55;36.23;99885.38;7316148;19;130540;-62
2021/12/27 05:12:43;;;;;;;2.58;1.67;;;;;;;19.56;36.18;99879.59;7313438;19;128992;-62
2021/12/27 05:15:10;;;;;;;2.60;1.38;;;;;;;19.53;36.08;99880.13;7315886;19;128845;-62
2021/12/27 05:17:37;;;;;;;1.77;1.60;;;;;;;19.52;36.29;99879.28;7311807;19;131647;-62
2021/12/27 05:20:05;;;;;;;1.65;1.55;;;;;;;19.52;36.00;99873.72;7312671;19;130536;-62
2021/12/27 05:22:32;;;;;;;2.35;1.60;;;;;;;19.52;36.37;99884.81;7311274;19;129022;-62
2021/12/27 05:24:59;;;;;;;5.38;1.90;;;;;;;19.50;35.89;99887.06;7315114;19;131402;-61
2021/12/27 05:27:26;;;;;;;2.67;1.88;;;;;;;19.52;35.97;99881.22;7312023;19;130592;-62
2021/12/27 05:30:13;;;;;;;1.95;1.75;;;;;;;19.52;35.98;99879.28;7312551;19;130665;-62
2021/12/27 05:32:40;;;;;;;4.40;1.67;;;;;;;19.53;36.05;99880.13;7313025;19;128896;-62
2021/12/27 05:35:09;;;;;;;5.90;1.92;;;;;;;19.52;36.00;99870.97;7312224;19;130349;-62
2021/12/27 05:37:37;;;;;;;5.47;1.60;;;;;;;19.55;35.97;99874.28;7315229;19;130738;-62
2021/12/27 05:40:08;;;;;;;4.05;1.55;;;;;;;19.53;35.75;99869.03;7310761;19;130588;-62
2021/12/27 05:42:36;;;;;;;5.78;1.80;;;;;;;19.53;35.70;99871.81;7315069;19;130383;-62
2021/12/27 05:45:04;;;;;;;3.58;1.80;;;;;;;19.53;36.15;99874.56;7311819;19;128986;-62
2021/12/27 05:47:31;;;;;;;5.78;2.00;;;;;;;19.54;35.96;99870.69;7314680;19;130382;-61
2021/12/27 05:49:58;;;;;;;3.22;1.67;;;;;;;19.53;35.76;99863.47;7310515;19;130408;-62
2021/12/27 05:52:24;;;;;;;4.70;1.70;;;;;;;19.53;35.97;99860.72;7311317;19;130139;-61
2021/12/27 05:54:51;;;;;;;5.97;1.75;;;;;;;19.53;35.96;99869.84;7312124;19;129111;-61
2021/12/27 05:57:19;;;;;;;4.53;1.70;;;;;;;19.54;35.90;99867.91;7311408;19;130592;-62
2021/12/27 05:59:47;;;;;;;5.30;1.52;;;;;;;19.53;35.96;99869.84;7313258;19;130247;-61
2021/12/27 06:02:14;;;;;;;6.07;1.80;;;;;;;19.52;36.19;99865.41;7311814;19;129438;-62
2021/12/27 06:04:41;;;;;;;5.88;1.80;;;;;;;19.52;36.15;99861.81;7313075;19;128907;-62
2021/12/27 06:07:07;;;;;;;3.35;1.63;;;;;;;19.52;36.13;99856.28;7309536;19;133277;-62
2021/12/27 06:09:34;;;;;;;5.00;1.88;;;;;;;19.51;35.94;99849.06;7313464;19;131393;-62
2021/12/27 06:12:01;;;;;;;4.88;1.80;;;;;;;19.50;35.76;99850.16;7308786;19;130498;-62
2021/12/27 06:14:28;;;;;;;3.65;1.60;;;;;;;19.50;35.84;99851.00;7313340;19;129330;-62
2021/12/27 06:16:55;;;;;;;6.13;1.63;;;;;;;19.49;36.22;99848.50;7308102;19;132190;-62
2021/12/27 06:19:22;;;;;;;8.52;1.70;;;;;;;19.49;35.90;99846.56;7313010;19;131318;-61
2021/12/27 06:21:49;;;;;;;5.05;1.90;;;;;;;19.47;36.06;99839.63;7309305;19;129461;-63
2021/12/27 06:24:16;;;;;;;6.50;2.10;;;;;;;19.47;36.26;99834.06;7312506;19;129314;-63
2021/12/27 06:26:43;;;;;;;9.70;2.60;;;;;;;19.47;36.32;99843.25;7306765;19;130768;-63
2021/12/27 06:29:10;;;;;;;6.53;2.22;;;;;;;19.53;36.36;99832.97;7310475;19;130505;-63
2021/12/27 06:31:37;;;;;;;12.65;2.35;;;;;;;19.63;36.46;99837.69;7310189;19;128888;-63
2021/12/27 06:34:04;;;;;;;9.75;2.13;;;;;;;19.79;36.28;99844.03;7309356;19;131154;-63
2021/12/27 06:36:32;;;;;;;4.38;1.75;;;;;;;19.99;36.04;99838.44;7314133;19;130569;-63
2021/12/27 06:39:00;;;;;;;5.03;1.40;;;;;;;20.20;35.52;99843.09;7309928;19;130635;-63
2021/12/27 06:41:27;;;;;;;2.92;1.38;;;;;;;20.41;35.80;99829.97;7314117;19;130775;-64
2021/12/27 06:43:53;;;;;;;10.20;1.45;;;;;;;20.64;35.15;99833.19;7307976;19;128871;-63
2021/12/27 06:46:20;;;;;;;5.80;1.60;;;;;;;20.83;34.86;99838.94;7313419;19;131431;-63
2021/12/27 06:48:47;;;;;;;8.38;1.83;;;;;;;21.01;34.68;99835.47;7310601;19;130626;-63
2021/12/27 06:51:14;;;;;;;6.75;1.70;;;;;;;21.19;34.36;99825.59;7312023;19;128765;-63
2021/12/27 06:53:41;;;;;;;7.50;1.73;;;;;;;21.32;34.14;99826.03;7312403;19;130144;-63
2021/12/27 06:56:07;;;;;;;7.47;1.77;;;;;;;21.43;34.15;99818.44;7313869;19;131292;-64
2021/12/27 06:58:34;;;;;;;4.30;1.63;;;;;;;21.52;34.41;99811.13;7311193;19;130510;-63
2021/12/27 07:01:01;;;;;;;3.20;1.55;;;;;;;21.59;34.28;99805.22;7312539;19;131137;-64
2021/12/27 07:03:28;;;;;;;2.72;1.30;;;;;;;21.63;34.03;99800.75;7311963;19;128859;-63
2021/12/27 07:05:55;;;;;;;5.95;1.88;;;;;;;21.63;34.16;99801.56;7311648;19;130465;-63
2021/12/27 07:08:22;;;;;;;3.47;1.45;;;;;;;21.65;34.34;99804.06;7312958;19;131253;-63
2021/12/27 07:10:50;;;;;;;6.70;1.48;;;;;;;21.63;34.01;99807.13;7310686;19;128727;-64
2021/12/27 07:13:16;;;;;;;6.18;1.58;;;;;;;21.62;34.23;99805.47;7311653;19;128840;-63
2021/12/27 07:15:44;;;;;;;3.63;1.52;;;;;;;21.61;33.70;99826.06;7307192;19;130659;-64
2021/12/27 07:18:12;;;;;;;2.88;1.52;;;;;;;21.57;34.09;99818.59;7314183;19;130717;-63
2021/12/27 07:20:40;;;;;;;3.97;1.60;;;;;;;21.52;34.29;99817.56;7308847;19;128974;-63
2021/12/27 07:23:07;;;;;;;8.13;1.83;;;;;;;21.48;34.01;99815.59;7309469;19;128978;-64
2021/12/27 07:25:34;;;;;;;5.43;1.83;;;;;;;21.43;34.08;99810.91;7309841;19;130995;-63
2021/12/27 07:28:01;;;;;;;2.40;1.40;;;;;;;21.37;33.71;99803.75;7312084;19;130540;-64
2021/12/27 07:30:31;;;;;;;6.03;1.63;;;;;;;21.31;33.76;99794.63;7309204;19;128851;-63
2021/12/27 07:32:58;;;;;;;3.25;1.80;;;;;;;21.23;33.71;99795.25;7309563;19;129168;-63
2021/12/27 07:35:25;;;;;;;4.43;1.40;;;;;;;21.16;34.31;99784.47;7311141;19;130553;-63
2021/12/27 07:37:52;;;;;;;3.50;1.70;;;;;;;21.12;33.84;99780.59;7312203;19;130364;-64
2021/12/27 07:40:24;;;;;;;4.10;1.83;;;;;;;21.05;33.88;99768.97;7313363;19;128779;-63
2021/12/27 07:42:51;;;;;;;4.43;1.52;;;;;;;20.99;34.31;99764.59;7310775;19;130757;-64
2021/12/27 07:45:18;;;;;;;6.40;2.05;;;;;;;20.94;33.92;99754.34;7313529;19;130541;-63
2021/12/27 07:47:44;;;;;;;3.03;1.70;;;;;;;20.93;34.06;99754.59;7310114;19;130595;-63
2021/12/27 07:50:11;;;;;;;2.13;1.70;;;;;;;20.94;34.05;99759.06;7313359;19;128836;-63
2021/12/27 07:52:38;;;;;;;4.38;1.58;;;;;;;20.98;34.41;99779.59;7309326;19;129521;-64
2021/12/27 07:55:06;;;;;;;3.53;1.73;;;;;;;21.01;34.24;99773.47;7312940;19;130615;-64
2021/12/27 07:57:33;;;;;;;2.78;1.33;;;;;;;21.04;34.35;99772.91;7317779;19;130857;-64
2021/12/27 08:00:02;;;;;;;4.65;1.65;;;;;;;21.10;34.06;99777.28;7319057;19;129451;-63
2021/12/27 08:02:29;;;;;;;3.50;1.50;;;;;;;21.13;34.02;99776.69;7317161;19;133178;-63
2021/12/27 08:04:56;;;;;;;4.80;1.20;;;;;;;21.17;34.13;99783.31;7318713;19;131284;-63
2021/12/27 08:07:23;;;;;;;2.17;1.30;;;;;;;21.20;33.85;99776.38;7319223;19;130405;-63
2021/12/27 08:09:50;;;;;;;2.65;1.50;;;;;;;21.22;34.07;99774.94;7318286;19;129355;-64
2021/12/27 08:12:17;;;;;;;3.25;1.60;;;;;;;21.27;33.72;99770.47;7319729;19;128839;-64
2021/12/27 08:14:44;;;;;;;2.42;1.40;;;;;;;21.29;34.05;99773.78;7317070;19;131028;-63
2021/12/27 08:17:10;;;;;;;2.88;1.35;;;;;;;21.30;33.97;99776.28;7319570;19;130499;-63
2021/12/27 08:19:37;;;;;;;3.55;1.40;;;;;;;21.33;33.86;99772.06;7315913;19;129213;-63
2021/12/27 08:22:04;;;;;;;4.32;1.83;;;;;;;21.34;33.60;99776.50;7320305;19;129608;-64
2021/12/27 08:24:30;;;;;;;3.03;1.20;;;;;;;21.37;33.75;99775.94;7316001;19;130543;-64
2021/12/27 08:27:00;;;;;;;2.30;1.30;;;;;;;21.38;33.70;99777.59;7318890;19;130418;-63
2021/12/27 08:29:26;;;;;;;2.28;1.25;;;;;;;21.40;33.62;99786.47;7316821;19;128919;-63
2021/12/27 08:31:53;;;;;;;4.13;1.40;;;;;;;21.42;33.87;99781.41;7318246;19;128956;-63
2021/12/27 08:34:20;;;;;;;3.33;1.20;;;;;;;21.44;33.47;99787.53;7316592;19;131500;-64
2021/12/27 08:36:50;;;;;;;3.08;1.40;;;;;;;21.45;33.68;99778.06;7317549;19;130325;-63
2021/12/27 08:39:17;;;;;;;4.30;1.27;;;;;;;21.46;33.28;99774.16;7319626;19;128823;-63
2021/12/27 08:41:44;;;;;;;2.08;1.15;;;;;;;21.48;33.79;99771.06;7317731;19;129038;-64
2021/12/27 08:44:11;;;;;;;1.77;1.35;;;;;;;21.49;33.57;99773.59;7317084;19;131551;-63
2021/12/27 08:46:38;;;;;;;1.40;1.13;;;;;;;21.51;33.74;99770.53;7315335;19;130576;-64
2021/12/27 08:49:05;;;;;;;2.80;1.23;;;;;;;21.52;33.25;99759.13;7317761;19;128997;-63
2021/12/27 08:51:32;;;;;;;4.65;1.52;;;;;;;21.53;33.69;99757.16;7317105;19;133067;-64
2021/12/27 08:53:58;;;;;;;3.83;1.02;;;;;;;21.55;33.29;99760.47;7313067;19;130997;-63
2021/12/27 08:56:25;;;;;;;2.70;1.10;;;;;;;21.56;33.47;99758.50;7313628;19;130635;-64
2021/12/27 08:58:52;;;;;;;3.83;1.38;;;;;;;21.58;33.34;99747.91;7318770;19;130425;-64
2021/12/27 09:01:18;;;;;;;4.32;1.45;;;;;;;21.58;33.43;99745.13;7316912;19;129795;-64
2021/12/27 09:03:46;;;;;;;2.05;1.25;;;;;;;21.58;33.45;99737.63;7317631;19;131419;-64
2021/12/27 09:06:14;;;;;;;2.53;1.00;;;;;;;21.55;33.29;99735.44;7316564;19;130587;-63
2021/12/27 09:08:41;;;;;;;2.45;1.27;;;;;;;21.54;33.38;99735.72;7315197;19;128812;-64
2021/12/27 09:11:08;;;;;;;1.95;1.13;;;;;;;21.52;33.42;99736.84;7319001;19;131257;-63
2021/12/27 09:13:38;;;;;;;1.08;0.85;;;;;;;21.50;33.40;99741.88;7305888;19;130518;-63
2021/12/27 09:16:07;;;;;;;3.58;1.35;;;;;;;21.50;33.36;99736.31;7309327;19;131395;-63
2021/12/27 09:18:35;;;;;;;1.33;1.20;;;;;;;21.50;33.63;99730.75;7315565;19;128609;-63
2021/12/27 09:21:03;;;;;;;1.85;1.10;;;;;;;21.50;33.65;99729.91;7318068;19;129027;-63
2021/12/27 09:23:30;;;;;;;1.75;1.20;;;;;;;21.50;33.44;99735.47;7314162;19;130651;-63
2021/12/27 09:25:57;;;;;;;2.53;1.25;;;;;;;21.49;33.52;99739.38;7316712;19;131296;-64
2021/12/27 09:28:24;;;;;;;1.00;0.80;;;;;;;21.50;33.68;99736.31;7314525;19;129617;-64
2021/12/27 09:30:51;;;;;;;2.00;1.00;;;;;;;21.51;33.35;99737.97;7317574;19;128689;-64
2021/12/27 09:33:17;;;;;;;1.13;1.00;;;;;;;21.52;33.26;99722.94;7313978;19;131466;-63
2021/12/27 09:35:44;;;;;;;2.13;1.10;;;;;;;21.55;33.21;99721.50;7315857;19;130558;-63
2021/12/27 09:38:11;;;;;;;1.80;1.15;;;;;;;21.57;33.65;99718.41;7314156;19;128746;-63
2021/12/27 09:40:39;;;;;;;2.30;1.20;;;;;;;21.57;33.15;99721.19;7315818;19;128913;-64
2021/12/27 09:43:07;;;;;;;2.20;1.20;;;;;;;21.60;33.34;99729.78;7316599;19;130672;-63
2021/12/27 09:45:34;;;;;;;1.83;1.33;;;;;;;21.60;33.13;99717.84;7315284;19;130942;-63
2021/12/27 09:48:02;;;;;;;0.93;0.85;;;;;;;21.61;33.35;99722.28;7317067;19;128759;-63
2021/12/27 09:50:37;;;;;;;2.40;1.13;;;;;;;21.62;33.55;99729.50;7315083;19;129302;-64
2021/12/27 09:53:04;;;;;;;1.38;0.90;;;;;;;21.61;33.32;99725.06;7315531;19;130749;-63
2021/12/27 09:55:36;;;;;;;1.77;1.15;;;;;;;21.62;33.54;99721.16;7313493;19;130648;-63
2021/12/27 09:58:03;;;;;;;1.40;1.10;;;;;;;21.60;33.05;99715.06;7317332;19;129127;-63
2021/12/27 10:00:30;;;;;;;1.50;0.95;;;;;;;21.60;33.49;99713.09;7313889;19;128814;-64
2021/12/27 10:02:57;;;;;;;1.98;1.08;;;;;;;21.60;33.32;99717.84;7316476;19;130599;-64
2021/12/27 10:05:27;;;;;;;1.42;1.10;;;;;;;21.60;33.48;99721.44;7313448;19;130684;-63
2021/12/27 10:07:54;;;;;;;2.78;0.90;;;;;;;21.60;33.02;99721.44;7315847;19;128992;-64
2021/12/27 10:10:34;;;;;;;1.00;0.80;;;;;;;21.62;33.07;99721.16;7313815;19;129396;-63
2021/12/27 10:13:10;;;;;;;2.78;1.00;;;;;;;21.64;33.13;99718.91;7313130;19;130614;-63
2021/12/27 10:15:39;;;;;;;0.85;0.80;;;;;;;21.64;33.58;99719.72;7315444;19;130574;-63
2021/12/27 10:18:15;;;;;;;4.45;1.10;;;;;;;21.67;33.46;99712.72;7313567;19;128974;-64
2021/12/27 10:20:43;;;;;;;1.67;0.90;;;;;;;21.67;33.03;99713.56;7316501;19;128899;-63
2021/12/27 10:23:12;;;;;;;1.15;0.95;;;;;;;21.69;33.03;99721.63;7312134;19;130821;-64
2021/12/27 10:25:39;;;;;;;1.13;0.80;;;;;;;21.71;33.02;99719.38;7314541;19;130192;-63
2021/12/27 10:28:06;;;;;;;1.30;1.02;;;;;;;21.73;33.47;99728.25;7312614;19;128682;-63
2021/12/27 10:30:35;;;;;;;1.15;0.80;;;;;;;21.75;33.41;99726.00;7314811;19;128959;-63
2021/12/27 10:33:13;;;;;;;2.08;1.00;;;;;;;21.75;32.96;99717.66;7312456;19;130404;-63
2021/12/27 10:35:49;;;;;;;1.20;0.80;;;;;;;21.78;33.13;99717.06;7312707;19;131262;-64
2021/12/27 10:38:23;;;;;;;1.67;1.10;;;;;;;21.78;33.11;99714.28;7315691;19;130401;-63
2021/12/27 10:40:56;;;;;;;2.22;0.90;;;;;;;21.81;33.23;99702.53;7312972;19;129386;-64
2021/12/27 10:43:43;;;;;;;2.10;1.10;;;;;;;21.85;33.33;99699.16;7315564;19;131725;-63
2021/12/27 10:46:20;;;;;;;1.25;0.93;;;;;;;21.85;33.08;99697.19;7310737;19;131035;-63
2021/12/27 10:48:57;;;;;;;1.17;0.82;;;;;;;21.87;33.17;99702.47;7314672;19;129015;-63
2021/12/27 10:51:24;;;;;;;;;;;;;;;21.86;33.02;99692.47;7312750;19;129720;-63
2021/12/27 10:53:56;;;;;;;1.83;1.00;;;;;;;21.90;32.85;99699.13;7312672;19;130723;-64
2021/12/27 10:56:26;;;;;;;1.20;1.00;;;;;;;21.91;33.29;99695.19;7313554;19;131268;-63
2021/12/27 10:58:55;;;;;;;1.00;0.90;;;;;;;21.91;32.81;99692.41;7313231;19;129022;-63
2021/12/27 11:01:24;;;;;;;2.90;1.20;;;;;;;21.90;33.09;99687.97;7313348;19;128927;-63
2021/12/27 11:03:54;;;;;;;1.70;0.90;;;;;;;21.91;33.12;99681.28;7310953;19;131153;-64
2021/12/27 11:06:24;;;;;;;1.58;1.10;;;;;;;21.90;33.20;99671.28;7312003;19;130338;-63
2021/12/27 11:08:52;;;;;;;1.25;0.90;;;;;;;21.91;33.14;99668.19;7311306;19;130910;-64
2021/12/27 11:11:23;;;;;;;1.85;1.23;;;;;;;21.92;33.00;99669.84;7313556;19;130232;-63
2021/12/27 11:13:55;;;;;;;2.35;1.10;;;;;;;21.91;33.07;99657.03;7312773;19;131176;-63
2021/12/27 11:16:23;;;;;;;2.35;1.02;;;;;;;21.88;32.81;99662.38;7312302;19;130745;-63
2021/12/27 11:18:50;;;;;;;2.42;1.20;;;;;;;21.85;33.01;99649.06;7310767;19;129650;-63
2021/12/27 11:21:21;;;;;;;2.53;1.20;;;;;;;21.82;32.84;99648.50;7310326;19;129026;-63
2021/12/27 11:23:50;;;;;;;2.22;1.00;;;;;;;21.79;32.85;99643.53;7312559;19;132974;-63
2021/12/27 11:26:31;;;;;;;1.50;1.10;;;;;;;21.78;33.35;99641.91;7309981;19;131437;-63
2021/12/27 11:29:13;;;;;;;4.53;1.40;;;;;;;21.77;33.20;99651.38;7313369;19;128860;-63
2021/12/27 11:31:42;;;;;;;3.28;1.30;;;;;;;21.75;33.11;99655.56;7306132;19;128898;-64
2021/12/27 11:34:14;;;;;;;1.90;1.38;;;;;;;21.74;32.99;99643.63;7308838;19;130660;-62